| time (UTC) | temp F | wind direction | speed MPH | gust MPH | rain 1hr in | rain 24hr in | rain mn in | humidity % | barometer mb |
| 20260507114518 | 49 | 5 | 14.0 | 18.0 | 0.00 | 0.00 | 0.00 | 70 | 1019.7 |
| 20260507113035 | 49 | 5 | 13.0 | 17.0 | 0.00 | 0.00 | 0.00 | 70 | 1019.6 |
| 20260507110022 | 50 | 5 | 18.0 | 25.0 | 0.00 | 0.00 | 0.00 | 68 | 1019.3 |
| 20260507104518 | 51 | 5 | 18.0 | 25.0 | 0.00 | 0.00 | 0.00 | 67 | 1019.1 |
| 20260507103016 | 51 | 5 | 19.0 | 25.0 | 0.00 | 0.00 | 0.00 | 66 | 1018.9 |
| 20260507100007 | 51 | 5 | 19.0 | 25.0 | 0.00 | 0.00 | 0.00 | 65 | 1018.7 |
| 20260507094509 | 51 | 5 | 18.0 | 26.0 | 0.00 | 0.00 | 0.00 | 64 | 1018.5 |
| 20260507093002 | 52 | 5 | 18.0 | 25.0 | 0.00 | 0.00 | 0.00 | 64 | 1018.3 |
| 20260507090006 | 53 | 5 | 19.0 | 24.0 | 0.00 | 0.00 | 0.00 | 63 | 1018.0 |
| 20260507084502 | 53 | 5 | 19.0 | 27.0 | 0.00 | 0.00 | 0.00 | 62 | 1018.1 |
| 20260507083002 | 54 | 5 | 21.0 | 26.0 | 0.00 | 0.00 | 0.00 | 62 | 1017.9 |
| 20260507080001 | 55 | 5 | 17.0 | 24.0 | 0.00 | 0.00 | 0.00 | 61 | 1018.0 |
| 20260507074557 | 56 | 5 | 18.0 | 23.0 | 0.00 | 0.00 | 0.00 | 58 | 1017.7 |
| 20260507073128 | 59 | 5 | 10.0 | 13.0 | 0.00 | 0.00 | 0.00 | 50 | 1017.1 |
| 20260507070100 | 63 | 5 | 2.0 | 9.0 | 0.00 | 0.00 | 0.00 | 26 | 1017.0 |
| 20260507064610 | 61 | 5 | 5.0 | 17.0 | 0.00 | 0.00 | 0.00 | 32 | 1016.8 |
| 20260507063102 | 64 | 5 | 11.0 | 13.0 | 0.00 | 0.00 | 0.00 | 22 | 1016.1 |
| 20260507060033 | 65 | 5 | 4.0 | 8.0 | 0.00 | 0.00 | 0.00 | 20 | 1015.8 |
| 20260507054531 | 65 | 5 | 6.0 | 9.0 | 0.00 | 0.00 | 0.00 | 21 | 1015.6 |
| 20260507053034 | 67 | 5 | 10.0 | 14.0 | 0.00 | 0.00 | 0.00 | 18 | 1015.4 |
| 20260507050035 | 67 | 5 | 15.0 | 18.0 | 0.00 | 0.00 | 0.00 | 19 | 1015.1 |
| 20260507044546 | 67 | 5 | 14.0 | 16.0 | 0.00 | 0.00 | 0.00 | 19 | 1015.2 |
| 20260507043032 | 68 | 5 | 15.0 | 17.0 | 0.00 | 0.00 | 0.00 | 18 | 1015.1 |
| 20260507040034 | 67 | 5 | 14.0 | 16.0 | 0.00 | 0.00 | 0.00 | 19 | 1014.6 |
| 20260507034543 | 68 | 5 | 13.0 | 18.0 | 0.00 | 0.00 | 0.00 | 18 | 1014.4 |
| 20260507033042 | 68 | 5 | 14.0 | 18.0 | 0.00 | 0.00 | 0.00 | 19 | 1014.1 |
| 20260507030030 | 69 | 5 | 12.0 | 16.0 | 0.00 | 0.00 | 0.00 | 17 | 1013.6 |
| 20260507024532 | 68 | 5 | 12.0 | 16.0 | 0.00 | 0.00 | 0.00 | 19 | 1013.4 |
| 20260507023029 | 69 | 5 | 12.0 | 15.0 | 0.00 | 0.00 | 0.00 | 18 | 1013.1 |
| 20260507020031 | 71 | 5 | 11.0 | 13.0 | 0.00 | 0.00 | 0.00 | 16 | 1012.7 |
| 20260507014527 | 72 | 5 | 12.0 | 16.0 | 0.00 | 0.00 | 0.00 | 14 | 1012.6 |
| 20260507013026 | 74 | 5 | 12.0 | 19.0 | 0.00 | 0.00 | 0.00 | 14 | 1012.4 |
| 20260507010036 | 76 | 5 | 16.0 | 23.0 | 0.00 | 0.00 | 0.00 | 13 | 1011.9 |
| 20260507004529 | 76 | 5 | 16.0 | 24.0 | 0.00 | 0.00 | 0.00 | 12 | 1011.8 |
| 20260507003029 | 77 | 5 | 17.0 | 30.0 | 0.00 | 0.00 | 0.00 | 13 | 1011.6 |
| 20260507000028 | 77 | 5 | 15.0 | 31.0 | 0.00 | 0.00 | 0.00 | 12 | 1011.4 |
| 20260506234542 | 78 | 5 | 19.0 | 28.0 | 0.00 | 0.00 | 0.00 | 12 | 1011.2 |
| 20260506233023 | 77 | 5 | 17.0 | 26.0 | 0.00 | 0.00 | 0.00 | 12 | 1011.3 |
| 20260506230051 | 77 | 5 | 24.0 | 30.0 | 0.00 | 0.00 | 0.00 | 12 | 1011.1 |
| 20260506224605 | 77 | 5 | 17.0 | 35.0 | 0.00 | 0.00 | 0.00 | 12 | 1010.9 |
| 20260506224516 | 77 | 5 | 17.0 | 35.0 | 0.00 | 0.00 | 0.00 | 12 | 1010.9 |
| 20260506223117 | 77 | 5 | 15.0 | 22.0 | 0.00 | 0.00 | 0.00 | 15 | 1010.9 |
| 20260506221505 | 76 | 5 | 17.0 | 30.0 | 0.00 | 0.00 | 0.00 | 15 | 1011.1 |
| 20260506220008 | 77 | 5 | 21.0 | 26.0 | 0.00 | 0.00 | 0.00 | 16 | 1011.0 |
| 20260506214503 | 76 | 5 | 20.0 | 27.0 | 0.00 | 0.00 | 0.00 | 15 | 1011.2 |
| 20260506213059 | 76 | 5 | 19.0 | 28.0 | 0.00 | 0.00 | 0.00 | 15 | 1011.4 |
| 20260506211559 | 76 | 5 | 18.0 | 24.0 | 0.00 | 0.00 | 0.00 | 16 | 1011.5 |
| 20260506210058 | 76 | 5 | 20.0 | 28.0 | 0.00 | 0.00 | 0.00 | 16 | 1011.6 |
| 20260506204555 | 76 | 5 | 23.0 | 28.0 | 0.00 | 0.00 | 0.00 | 16 | 1011.9 |
| 20260506203102 | 76 | 5 | 19.0 | 30.0 | 0.00 | 0.00 | 0.00 | 16 | 1011.9 |
| 20260506201554 | 74 | 5 | 14.0 | 27.0 | 0.00 | 0.00 | 0.00 | 23 | 1012.2 |
| 20260506200053 | 74 | 5 | 18.0 | 32.0 | 0.00 | 0.00 | 0.00 | 22 | 1012.4 |
| 20260506194553 | 73 | 5 | 18.0 | 25.0 | 0.00 | 0.00 | 0.00 | 24 | 1012.4 |
| 20260506193058 | 73 | 5 | 13.0 | 24.0 | 0.00 | 0.00 | 0.00 | 24 | 1012.6 |
| 20260506191552 | 72 | 5 | 15.0 | 22.0 | 0.00 | 0.00 | 0.00 | 25 | 1012.8 |
| 20260506190049 | 72 | 5 | 22.0 | 31.0 | 0.00 | 0.00 | 0.00 | 24 | 1012.9 |
| 20260506184546 | 72 | 5 | 21.0 | 29.0 | 0.00 | 0.00 | 0.00 | 26 | 1013.3 |
| 20260506183059 | 70 | 5 | 14.0 | 32.0 | 0.00 | 0.00 | 0.00 | 26 | 1013.5 |
| 20260506181601 | 71 | 5 | 20.0 | 28.0 | 0.00 | 0.00 | 0.00 | 26 | 1013.7 |
| 20260506180050 | 70 | 5 | 12.0 | 24.0 | 0.00 | 0.00 | 0.00 | 27 | 1013.7 |
| 20260506174544 | 69 | 5 | 5.0 | 10.0 | 0.00 | 0.00 | 0.00 | 36 | 1014.0 |
| 20260506173043 | 68 | 5 | 6.0 | 13.0 | 0.00 | 0.00 | 0.00 | 38 | 1014.1 |
| 20260506171530 | 66 | 5 | 3.0 | 6.0 | 0.00 | 0.00 | 0.00 | 42 | 1014.1 |
| 20260506170026 | 65 | 5 | 4.0 | 10.0 | 0.00 | 0.00 | 0.00 | 43 | 1014.3 |
| 20260506164522 | 64 | 5 | 9.0 | 12.0 | 0.00 | 0.00 | 0.00 | 47 | 1014.2 |
| 20260506163025 | 63 | 5 | 5.0 | 13.0 | 0.00 | 0.00 | 0.00 | 48 | 1014.3 |
| 20260506161522 | 62 | 5 | 10.0 | 14.0 | 0.00 | 0.00 | 0.00 | 52 | 1014.2 |
| 20260506160033 | 61 | 5 | 12.0 | 17.0 | 0.00 | 0.00 | 0.00 | 53 | 1014.2 |
| 20260506154517 | 60 | 5 | 14.0 | 18.0 | 0.00 | 0.00 | 0.00 | 55 | 1014.0 |
| 20260506153020 | 60 | 5 | 12.0 | 17.0 | 0.00 | 0.00 | 0.00 | 56 | 1013.9 |
| 20260506151519 | 60 | 5 | 12.0 | 16.0 | 0.00 | 0.00 | 0.00 | 57 | 1013.7 |
| 20260506150017 | 60 | 5 | 12.0 | 16.0 | 0.00 | 0.00 | 0.00 | 57 | 1013.6 |
| 20260506144515 | 58 | 5 | 12.0 | 18.0 | 0.00 | 0.00 | 0.00 | 58 | 1013.7 |
| 20260506143009 | 57 | 5 | 13.0 | 16.0 | 0.00 | 0.00 | 0.00 | 59 | 1013.7 |
| 20260506141507 | 55 | 5 | 13.0 | 20.0 | 0.00 | 0.00 | 0.00 | 59 | 1013.7 |
| 20260506140004 | 57 | 5 | 14.0 | 20.0 | 0.00 | 0.00 | 0.00 | 54 | 1013.6 |
| 20260506134600 | 59 | 5 | 13.0 | 19.0 | 0.00 | 0.00 | 0.00 | 49 | 1013.5 |
| 20260506133004 | 59 | 5 | 8.0 | 12.0 | 0.00 | 0.00 | 0.00 | 49 | 1013.2 |
| 20260506131605 | 59 | 5 | 7.0 | 9.0 | 0.00 | 0.00 | 0.00 | 46 | 1012.8 |
| 20260506130059 | 59 | 5 | 8.0 | 11.0 | 0.00 | 0.00 | 0.00 | 44 | 1012.7 |
| 20260506124600 | 59 | 5 | 11.0 | 15.0 | 0.00 | 0.00 | 0.00 | 40 | 1012.4 |
| 20260506123042 | 60 | 5 | 13.0 | 16.0 | 0.00 | 0.00 | 0.00 | 38 | 1012.2 |
| 20260506121538 | 62 | 5 | 13.0 | 17.0 | 0.00 | 0.00 | 0.00 | 33 | 1011.9 |
| 20260506120035 | 61 | 5 | 11.0 | 13.0 | 0.00 | 0.00 | 0.00 | 36 | 1011.7 |